Time;durP1;ratioP1;P1;durP2;ratioP2;P2;SDS_P1;SDS_P2;PMS_P1;PMS_P2;Temp;Humidity;BMP_temperature;BMP_pressure;BME280_temperature;BME280_humidity;BME280_pressure;Samples;Min_cycle;Max_cycle;Signal;HPM_P1;HPM_P2
2022/10/19 00:00:51;;;;;;;13.53;11.67;;;;;;;9.96;100.00;98048.44;4980903;28;20417;-58
2022/10/19 00:03:19;;;;;;;16.07;10.30;;;;;;;9.88;100.00;98043.97;5013587;28;21122;-59
2022/10/19 00:05:50;;;;;;;32.07;12.03;;;;;;;9.92;100.00;98061.19;5013045;28;20771;-62
2022/10/19 00:08:18;;;;;;;17.77;11.70;;;;;;;10.03;100.00;98053.94;5015311;28;21273;-60
2022/10/19 00:10:48;;;;;;;12.80;10.23;;;;;;;10.08;100.00;98062.22;4974705;28;20698;-60
2022/10/19 00:13:16;;;;;;;25.07;11.33;;;;;;;10.22;100.00;98066.91;5016441;28;20460;-61
2022/10/19 00:15:45;;;;;;;17.37;10.90;;;;;;;10.30;100.00;98076.72;4975579;28;20226;-62
2022/10/19 00:18:13;;;;;;;30.40;13.47;;;;;;;10.37;100.00;98076.91;4998146;28;20214;-60
2022/10/19 00:20:41;;;;;;;19.83;11.43;;;;;;;10.35;100.00;98074.41;4989363;28;20493;-62
2022/10/19 00:23:09;;;;;;;17.57;12.53;;;;;;;10.41;100.00;98084.38;5017306;28;20301;-61
2022/10/19 00:25:37;;;;;;;19.30;10.07;;;;;;;10.39;100.00;98070.44;4968539;28;20231;-61
2022/10/19 00:28:07;;;;;;;24.30;10.03;;;;;;;10.41;100.00;98080.94;5010299;28;20227;-61
2022/10/19 00:30:37;;;;;;;10.63;9.63;;;;;;;10.44;100.00;98083.25;4991268;28;20590;-61
2022/10/19 00:33:05;;;;;;;13.13;9.83;;;;;;;10.36;100.00;98078.72;4996163;28;20210;-61
2022/10/19 00:35:33;;;;;;;20.13;9.97;;;;;;;10.36;100.00;98078.72;5013464;28;20221;-61
2022/10/19 00:38:01;;;;;;;18.83;10.30;;;;;;;10.33;100.00;98075.56;4995757;28;20214;-61
2022/10/19 00:40:30;;;;;;;11.50;9.90;;;;;;;10.25;100.00;98063.13;4991610;28;20687;-60
2022/10/19 00:42:58;;;;;;;21.00;10.33;;;;;;;10.29;100.00;98077.72;5002172;28;20207;-59
2022/10/19 00:45:27;;;;;;;16.53;10.07;;;;;;;10.27;100.00;98075.22;4982365;28;20650;-63
2022/10/19 00:47:56;;;;;;;9.33;8.50;;;;;;;10.21;100.00;98070.56;4993774;28;20455;-58
2022/10/19 00:50:24;;;;;;;36.67;11.20;;;;;;;10.18;100.00;98070.88;5013290;28;20203;-60
2022/10/19 00:52:52;;;;;;;29.33;10.50;;;;;;;10.13;100.00;98065.22;5014572;28;20293;-59
2022/10/19 00:55:21;;;;;;;12.97;8.63;;;;;;;10.11;100.00;98065.41;5005706;28;20210;-60
2022/10/19 00:57:49;;;;;;;16.37;8.50;;;;;;;10.10;100.00;98069.03;4978236;28;20590;-60
2022/10/19 01:00:18;;;;;;;20.10;10.10;;;;;;;10.06;100.00;98067.72;4994155;28;21392;-63
2022/10/19 01:02:48;;;;;;;11.90;8.70;;;;;;;10.08;100.00;98067.53;4975087;28;20219;-61
2022/10/19 01:05:16;;;;;;;9.70;8.83;;;;;;;10.08;100.00;98063.06;5014519;28;20410;-62
2022/10/19 01:07:45;;;;;;;10.00;8.97;;;;;;;10.16;100.00;98064.91;5014584;28;20429;-61
2022/10/19 01:10:13;;;;;;;9.50;8.57;;;;;;;10.20;100.00;98068.06;5020910;28;20211;-60
2022/10/19 01:12:58;;;;;;;10.90;9.90;;;;;;;10.21;100.00;98072.38;4969244;28;20852;-61
2022/10/19 01:15:33;;;;;;;10.70;9.63;;;;;;;10.24;100.00;98077.38;5006861;28;20230;-63
2022/10/19 01:18:06;;;;;;;10.60;9.53;;;;;;;10.31;100.00;98066.97;4994699;28;20420;-61
2022/10/19 01:20:57;;;;;;;12.57;10.77;;;;;;;10.33;100.00;98067.63;4998046;28;20217;-61
2022/10/19 01:24:05;;;;;;;13.30;12.10;;;;;;;10.38;100.00;98076.75;5016983;28;20588;-63
2022/10/19 01:26:47;;;;;;;17.30;12.50;;;;;;;10.36;100.00;98060.19;5013604;28;20413;-64
2022/10/19 01:29:19;;;;;;;18.63;13.17;;;;;;;10.42;100.00;98064.03;4977630;28;20222;-58
2022/10/19 01:31:52;;;;;;;33.03;15.73;;;;;;;10.44;100.00;98066.53;4997026;28;20819;-62
2022/10/19 01:34:25;;;;;;;22.03;14.47;;;;;;;10.47;100.00;98055.63;5011602;28;20208;-63
2022/10/19 01:37:00;;;;;;;29.97;15.70;;;;;;;10.51;100.00;98060.41;5014815;28;20215;-63
2022/10/19 01:39:33;;;;;;;21.80;14.93;;;;;;;10.54;100.00;98054.78;5010069;28;20405;-60
2022/10/19 01:42:07;;;;;;;22.30;15.10;;;;;;;10.61;100.00;98051.50;5012523;28;20203;-62
2022/10/19 01:44:38;;;;;;;22.53;16.43;;;;;;;10.55;100.00;98059.09;4973624;28;20214;-60
2022/10/19 01:47:11;;;;;;;26.37;16.43;;;;;;;10.61;100.00;98043.56;5000399;28;20946;-61
2022/10/19 01:49:43;;;;;;;24.33;16.93;;;;;;;10.61;100.00;98040.91;4992696;28;20316;-62
2022/10/19 01:52:15;;;;;;;24.40;15.60;;;;;;;10.56;100.00;98036.91;4992678;28;20381;-61
2022/10/19 01:54:47;;;;;;;21.60;17.50;;;;;;;10.63;100.00;98039.75;5013531;28;20423;-63
2022/10/19 01:57:19;;;;;;;24.43;16.40;;;;;;;10.57;100.00;98033.25;5011861;28;20251;-62
2022/10/19 01:59:49;;;;;;;24.07;15.70;;;;;;;10.65;100.00;98035.09;4971010;28;20242;-61
2022/10/19 02:02:20;;;;;;;18.23;14.87;;;;;;;10.65;100.00;98032.47;4992620;28;20203;-63
2022/10/19 02:04:49;;;;;;;31.60;16.03;;;;;;;10.59;100.00;98035.75;5014950;28;20774;-60
2022/10/19 02:07:19;;;;;;;27.83;17.20;;;;;;;10.57;100.00;98037.75;4965259;28;20245;-61
2022/10/19 02:09:47;;;;;;;18.27;15.63;;;;;;;10.53;100.00;98039.06;5015563;28;20234;-62
2022/10/19 02:12:15;;;;;;;15.63;14.00;;;;;;;10.53;100.00;98049.66;5011402;28;20465;-59
2022/10/19 02:14:47;;;;;;;27.77;15.53;;;;;;;10.49;100.00;98032.44;4969834;28;20425;-56
2022/10/19 02:17:19;;;;;;;20.23;14.97;;;;;;;10.54;100.00;98027.47;4996186;28;20232;-61
2022/10/19 02:19:47;;;;;;;30.03;15.63;;;;;;;10.53;100.00;98029.28;4989149;28;20625;-63
2022/10/19 02:22:16;;;;;;;17.87;14.43;;;;;;;10.45;100.00;98016.03;4992544;28;20307;-61
2022/10/19 02:24:44;;;;;;;19.80;14.70;;;;;;;10.48;100.00;98020.19;5013704;28;20251;-61
2022/10/19 02:27:12;;;;;;;17.20;15.40;;;;;;;10.52;100.00;98026.81;5013688;28;20573;-61
2022/10/19 02:29:41;;;;;;;20.03;14.23;;;;;;;10.53;100.00;98029.28;4970475;28;20544;-61
2022/10/19 02:32:09;;;;;;;19.47;15.60;;;;;;;10.52;100.00;98022.31;5007660;28;20212;-61
2022/10/19 02:34:40;;;;;;;21.70;16.30;;;;;;;10.53;100.00;98016.03;4981560;28;21460;-61
2022/10/19 02:37:09;;;;;;;30.43;15.53;;;;;;;10.47;100.00;98000.78;4995321;28;20231;-60
2022/10/19 02:39:38;;;;;;;19.87;15.43;;;;;;;10.50;100.00;98012.91;4988557;28;20530;-61
2022/10/19 02:42:11;;;;;;;20.27;15.07;;;;;;;10.41;100.00;98007.56;5014741;28;20383;-61
2022/10/19 02:44:42;;;;;;;16.43;14.67;;;;;;;10.47;100.00;98000.78;5013823;28;20222;-62
2022/10/19 02:47:13;;;;;;;18.50;14.77;;;;;;;10.46;100.00;98001.78;4968542;28;20498;-61
2022/10/19 02:49:43;;;;;;;16.90;14.97;;;;;;;10.45;100.00;97992.19;4991627;28;20249;-62
2022/10/19 02:52:12;;;;;;;21.33;15.60;;;;;;;10.41;100.00;97996.97;4999005;28;20487;-61
2022/10/19 02:54:42;;;;;;;18.37;14.07;;;;;;;10.41;100.00;97989.03;5013876;28;20417;-61
2022/10/19 02:57:16;;;;;;;24.50;15.50;;;;;;;10.38;100.00;97984.00;5011726;28;20237;-62
2022/10/19 02:59:44;;;;;;;18.10;14.43;;;;;;;10.34;100.00;97989.81;5012434;28;20745;-60
2022/10/19 03:02:12;;;;;;;22.03;15.23;;;;;;;10.42;100.00;97984.56;4966806;28;20242;-62
2022/10/19 03:04:41;;;;;;;22.83;15.63;;;;;;;10.44;100.00;97984.41;4966033;28;21972;-58
2022/10/19 03:07:13;;;;;;;18.53;15.20;;;;;;;10.42;100.00;97977.47;5007540;28;20223;-62
2022/10/19 03:09:42;;;;;;;22.70;16.07;;;;;;;10.49;100.00;97988.22;5000131;28;20223;-62
2022/10/19 03:12:10;;;;;;;23.40;14.83;;;;;;;10.51;100.00;97988.06;4997806;28;20309;-59
2022/10/19 03:14:38;;;;;;;24.73;15.97;;;;;;;10.46;100.00;97985.88;5012526;28;20204;-61
2022/10/19 03:17:07;;;;;;;31.20;16.43;;;;;;;10.47;100.00;97990.19;4966828;28;20233;-61
2022/10/19 03:19:36;;;;;;;17.57;15.30;;;;;;;10.49;100.00;97990.03;4988879;28;20210;-62
2022/10/19 03:22:04;;;;;;;30.43;14.80;;;;;;;10.37;100.00;97985.00;5008166;28;20202;-61
2022/10/19 03:24:34;;;;;;;19.87;13.67;;;;;;;10.36;100.00;97991.31;4989445;28;20273;-62
2022/10/19 03:27:03;;;;;;;16.13;13.50;;;;;;;10.41;100.00;97989.03;4990582;28;20802;-61
2022/10/19 03:29:31;;;;;;;21.73;13.77;;;;;;;10.44;100.00;97990.53;5011811;28;20225;-61
2022/10/19 03:31:59;;;;;;;28.70;15.27;;;;;;;10.36;100.00;97986.00;4981420;28;20485;-62
2022/10/19 03:34:28;;;;;;;30.10;15.50;;;;;;;10.36;100.00;97999.25;4966702;28;20214;-60
2022/10/19 03:36:58;;;;;;;20.43;13.30;;;;;;;10.33;100.00;97996.13;5005972;28;20258;-60
2022/10/19 03:39:26;;;;;;;24.23;14.43;;;;;;;10.31;100.00;98000.75;4992506;28;20214;-62
2022/10/19 03:41:55;;;;;;;17.13;13.23;;;;;;;10.42;100.00;97989.88;5011934;28;20404;-60
2022/10/19 03:44:24;;;;;;;14.93;13.40;;;;;;;10.35;100.00;97991.47;5012249;28;20210;-61
2022/10/19 03:46:52;;;;;;;22.33;13.17;;;;;;;10.38;100.00;97991.16;4988109;28;20400;-61
2022/10/19 03:49:20;;;;;;;28.30;15.53;;;;;;;10.42;100.00;97992.50;4964595;28;20279;-63
2022/10/19 03:51:49;;;;;;;17.90;14.37;;;;;;;10.42;100.00;97996.00;4997519;28;20460;-62
2022/10/19 03:54:17;;;;;;;27.00;14.73;;;;;;;10.41;100.00;97991.66;5011859;28;20459;-59
2022/10/19 03:56:50;;;;;;;22.67;15.47;;;;;;;10.46;100.00;98000.97;5012569;28;21274;-60
2022/10/19 03:59:20;;;;;;;23.00;15.20;;;;;;;10.42;100.00;97989.88;5012802;28;20199;-63
2022/10/19 04:01:48;;;;;;;23.00;13.33;;;;;;;10.34;100.00;97995.13;5012089;28;20409;-62
2022/10/19 04:04:18;;;;;;;18.47;11.53;;;;;;;10.36;100.00;97993.94;4966293;28;20211;-61
2022/10/19 04:06:48;;;;;;;14.20;11.63;;;;;;;10.37;100.00;97992.97;4969242;28;20475;-61
2022/10/19 04:09:18;;;;;;;26.27;13.67;;;;;;;10.35;100.00;97987.00;5012630;28;20648;-62
2022/10/19 04:11:47;;;;;;;50.70;16.77;;;;;;;10.26;100.00;97990.63;5013796;28;20207;-61
2022/10/19 04:14:16;;;;;;;52.40;16.73;;;;;;;10.29;100.00;97985.00;5013023;28;20217;-63
2022/10/19 04:17:02;;;;;;;27.73;15.67;;;;;;;10.24;100.00;97982.84;5013376;28;20834;-63
2022/10/19 04:19:30;;;;;;;27.13;13.70;;;;;;;10.18;100.00;97978.19;4949297;28;20213;-60
2022/10/19 04:21:59;;;;;;;29.63;13.23;;;;;;;10.28;100.00;97986.00;5009491;28;20601;-63
2022/10/19 04:24:27;;;;;;;73.37;18.30;;;;;;;10.30;100.00;97989.31;4992340;28;20598;-61
2022/10/19 04:26:56;;;;;;;35.63;16.83;;;;;;;10.27;100.00;97994.94;5004519;28;20235;-62
2022/10/19 04:29:26;;;;;;;22.60;13.77;;;;;;;10.35;100.00;97992.28;5002813;28;20508;-62
2022/10/19 04:31:58;;;;;;;22.40;14.27;;;;;;;10.25;100.00;97986.31;5010683;28;20686;-63
2022/10/19 04:34:27;;;;;;;40.07;15.67;;;;;;;10.27;100.00;97989.63;4967071;28;20471;-61
2022/10/19 04:36:58;;;;;;;18.93;13.97;;;;;;;10.23;100.00;97990.94;4988023;28;20250;-64
2022/10/19 04:39:26;;;;;;;27.67;13.77;;;;;;;10.23;100.00;98001.53;5012081;28;20204;-60
2022/10/19 04:41:54;;;;;;;25.60;12.40;;;;;;;10.23;100.00;97990.94;5014015;28;21448;-59
2022/10/19 04:44:23;;;;;;;121.33;21.90;;;;;;;10.16;100.00;97993.41;5008451;28;20215;-61
2022/10/19 04:46:51;;;;;;;47.17;16.83;;;;;;;10.12;100.00;97984.97;5002852;28;20226;-61
2022/10/19 04:49:19;;;;;;;39.70;15.43;;;;;;;10.15;100.00;97989.09;4979319;28;20343;-63
2022/10/19 04:51:49;;;;;;;41.37;14.80;;;;;;;10.16;100.00;97982.00;4991982;28;20845;-61
2022/10/19 04:54:17;;;;;;;59.47;16.83;;;;;;;10.13;100.00;97986.63;5015568;28;20247;-59
2022/10/19 04:56:46;;;;;;;45.50;16.57;;;;;;;10.13;100.00;97991.94;5012199;28;21163;-59
2022/10/19 04:59:14;;;;;;;61.50;18.57;;;;;;;10.06;100.00;97987.44;5017155;28;20206;-61
2022/10/19 05:01:42;;;;;;;49.53;15.37;;;;;;;10.07;100.00;97986.44;5012031;28;20325;-60
2022/10/19 05:04:14;;;;;;;35.20;13.50;;;;;;;10.06;100.00;97982.97;5014849;28;20198;-61
2022/10/19 05:06:42;;;;;;;73.63;18.23;;;;;;;10.01;100.00;97984.44;4971942;28;20594;-62
2022/10/19 05:09:12;;;;;;;25.03;13.20;;;;;;;9.99;100.00;97984.59;4972294;28;20226;-64
2022/10/19 05:11:40;;;;;;;43.10;14.97;;;;;;;9.99;100.00;97987.22;5009054;28;20594;-63
2022/10/19 05:14:08;;;;;;;78.07;17.47;;;;;;;9.94;100.00;97984.25;5017922;28;20203;-61
2022/10/19 05:16:36;;;;;;;119.03;20.73;;;;;;;9.89;100.00;97981.25;4986375;28;20575;-60
2022/10/19 05:19:04;;;;;;;54.77;14.87;;;;;;;9.86;100.00;97974.47;5016376;28;20203;-58
2022/10/19 05:21:33;;;;;;;38.43;14.43;;;;;;;9.91;100.00;97969.53;4967855;28;20535;-62
2022/10/19 05:24:01;;;;;;;51.13;14.67;;;;;;;9.87;100.00;97965.53;4991763;28;20295;-61
2022/10/19 05:26:31;;;;;;;55.30;15.60;;;;;;;9.88;100.00;97967.19;5013151;28;20250;-62
2022/10/19 05:29:03;;;;;;;40.40;13.17;;;;;;;9.90;100.00;97973.16;5013827;28;20233;-62
2022/10/19 05:31:33;;;;;;;28.17;13.10;;;;;;;9.87;100.00;97970.84;5014577;28;21661;-60
2022/10/19 05:34:02;;;;;;;58.60;15.23;;;;;;;9.84;100.00;97968.47;5012921;28;20557;-62
2022/10/19 05:36:33;;;;;;;25.53;12.00;;;;;;;9.89;100.00;97973.31;4965201;28;20495;-63
2022/10/19 05:39:04;;;;;;;43.27;13.10;;;;;;;9.83;100.00;97977.41;4991834;28;20887;-62
2022/10/19 05:41:33;;;;;;;23.73;12.20;;;;;;;9.79;100.00;97968.97;5011682;28;20834;-61
2022/10/19 05:44:02;;;;;;;96.03;19.57;;;;;;;9.76;100.00;97976.41;5014518;28;20221;-61
2022/10/19 05:46:32;;;;;;;45.27;12.73;;;;;;;9.78;100.00;97972.63;5010462;28;20450;-62
2022/10/19 05:49:01;;;;;;;89.10;16.93;;;;;;;9.72;100.00;97977.69;5014792;28;20203;-61
2022/10/19 05:51:29;;;;;;;68.70;14.40;;;;;;;9.63;100.00;97979.47;4966938;28;26128;-60
2022/10/19 05:53:57;;;;;;;18.53;9.83;;;;;;;9.62;100.00;97973.38;4990233;28;20842;-61
2022/10/19 05:56:27;;;;;;;19.90;9.93;;;;;;;9.56;100.00;97974.81;5012243;28;20230;-62
2022/10/19 05:58:58;;;;;;;17.13;10.07;;;;;;;9.62;100.00;97983.94;5015518;28;20598;-63
2022/10/19 06:01:27;;;;;;;25.90;11.17;;;;;;;9.61;100.00;97973.50;5010268;28;20416;-62
2022/10/19 06:03:57;;;;;;;25.47;10.63;;;;;;;9.65;100.00;97974.84;5013174;28;20460;-63
2022/10/19 06:06:26;;;;;;;51.90;12.73;;;;;;;9.71;100.00;97982.19;4967703;28;20805;-61
2022/10/19 06:08:56;;;;;;;28.93;10.80;;;;;;;9.62;100.00;97981.31;5013724;28;20238;-63
2022/10/19 06:11:25;;;;;;;44.23;12.47;;;;;;;9.58;100.00;97977.31;4987632;28;20702;-62
2022/10/19 06:13:55;;;;;;;30.37;10.67;;;;;;;9.60;100.00;97975.34;5015279;28;20214;-62
2022/10/19 06:16:26;;;;;;;12.33;8.90;;;;;;;9.63;100.00;97984.75;5008083;28;20795;-64
2022/10/19 06:18:55;;;;;;;48.97;13.70;;;;;;;9.55;100.00;97980.28;5014967;28;20748;-62
2022/10/19 06:21:25;;;;;;;15.47;9.00;;;;;;;9.54;100.00;97983.91;4972096;28;20211;-62
2022/10/19 06:23:54;;;;;;;12.47;7.03;;;;;;;9.62;100.00;97983.09;5013223;28;20429;-63
2022/10/19 06:26:23;;;;;;;24.27;8.53;;;;;;;9.53;100.00;97985.72;4987967;28;20237;-61
2022/10/19 06:28:51;;;;;;;38.13;10.13;;;;;;;9.60;100.00;97979.78;5010696;28;20210;-61
2022/10/19 06:31:19;;;;;;;18.27;8.50;;;;;;;9.78;100.00;97993.78;5013302;28;20715;-62
2022/10/19 06:33:49;;;;;;;19.27;9.70;;;;;;;9.79;100.00;97998.09;5015063;28;20492;-62
2022/10/19 06:36:19;;;;;;;22.23;8.00;;;;;;;9.87;100.00;97999.09;5014160;28;20226;-62
2022/10/19 06:38:49;;;;;;;41.03;10.07;;;;;;;9.93;100.00;98009.06;4962564;28;20820;-60
2022/10/19 06:41:17;;;;;;;21.30;8.83;;;;;;;9.84;100.00;98013.47;4992272;28;20199;-61
2022/10/19 06:43:49;;;;;;;14.70;7.73;;;;;;;9.82;100.00;98011.00;5010692;28;20310;-61
2022/10/19 06:46:21;;;;;;;48.90;10.57;;;;;;;9.83;100.00;98015.31;5012944;28;20225;-61
2022/10/19 06:48:52;;;;;;;17.63;7.00;;;;;;;9.92;100.00;98015.34;5010992;28;20489;-61
2022/10/19 06:51:21;;;;;;;17.23;8.43;;;;;;;9.91;100.00;98026.91;5014814;28;20226;-63
2022/10/19 06:53:50;;;;;;;28.00;7.80;;;;;;;9.99;100.00;98030.44;4965763;28;20270;-60
2022/10/19 06:56:24;;;;;;;13.83;7.10;;;;;;;9.90;100.00;98027.91;4990119;28;20261;-62
2022/10/19 06:58:52;;;;;;;8.73;6.03;;;;;;;9.97;100.00;98028.91;5011138;28;23048;-61
2022/10/19 07:01:20;;;;;;;16.23;8.27;;;;;;;9.97;100.00;98032.41;5012510;28;20888;-61
2022/10/19 07:03:52;;;;;;;21.83;7.83;;;;;;;10.05;100.00;98033.44;5013415;28;20441;-61
2022/10/19 07:06:20;;;;;;;11.73;6.87;;;;;;;10.07;100.00;98031.44;5013921;28;20894;-62
2022/10/19 07:08:49;;;;;;;23.60;10.10;;;;;;;10.16;100.00;98038.44;4965242;28;20215;-62
2022/10/19 07:11:18;;;;;;;32.77;8.33;;;;;;;10.13;100.00;98034.28;5011354;28;20394;-61
2022/10/19 07:13:47;;;;;;;8.80;7.30;;;;;;;10.18;100.00;98035.63;4988021;28;20214;-64
2022/10/19 07:16:16;;;;;;;15.43;7.37;;;;;;;10.25;100.00;98042.78;5011373;28;20845;-61
2022/10/19 07:18:49;;;;;;;9.67;8.33;;;;;;;10.34;100.00;98045.44;5009548;28;20284;-62
2022/10/19 07:21:20;;;;;;;13.53;6.70;;;;;;;10.45;100.00;98053.13;5012060;28;20829;-62
2022/10/19 07:23:49;;;;;;;18.87;7.80;;;;;;;10.41;100.00;98046.50;4962669;28;20470;-62
2022/10/19 07:26:20;;;;;;;19.37;7.63;;;;;;;10.42;100.00;98045.50;5009516;28;20594;-60
2022/10/19 07:28:49;;;;;;;25.17;7.37;;;;;;;10.44;100.00;98046.16;4967282;28;20898;-62
2022/10/19 07:31:20;;;;;;;10.67;7.67;;;;;;;10.36;100.00;98040.81;5013477;28;20558;-61
2022/10/19 07:33:52;;;;;;;22.17;8.83;;;;;;;10.51;100.00;98035.75;5009475;28;20447;-58
2022/10/19 07:36:22;;;;;;;12.80;6.90;;;;;;;10.47;100.00;98031.78;5009755;28;20344;-60
2022/10/19 07:38:50;;;;;;;16.37;6.73;;;;;;;10.45;100.00;98028.47;4966761;28;20210;-61
2022/10/19 07:41:20;;;;;;;21.57;8.33;;;;;;;10.63;100.00;98034.44;5010541;28;20203;-59
2022/10/19 07:43:48;;;;;;;37.90;9.10;;;;;;;10.49;100.00;98030.59;4986762;28;20581;-62
2022/10/19 07:46:18;;;;;;;8.83;7.27;;;;;;;10.63;100.00;98033.63;5012812;28;20218;-62
2022/10/19 07:48:47;;;;;;;7.27;6.63;;;;;;;10.66;100.00;98033.31;5008106;28;21259;-62
2022/10/19 07:51:16;;;;;;;12.63;6.33;;;;;;;10.72;100.00;98040.59;5012280;28;20230;-63
2022/10/19 07:53:46;;;;;;;6.03;5.50;;;;;;;10.90;100.00;98043.09;4977970;28;20217;-60
2022/10/19 07:56:17;;;;;;;6.97;5.77;;;;;;;10.92;100.00;98050.88;5008231;28;20241;-62
2022/10/19 07:58:46;;;;;;;8.20;7.60;;;;;;;10.91;100.00;98046.56;4993834;28;20694;-60
2022/10/19 08:01:19;;;;;;;9.00;8.10;;;;;;;10.95;100.00;98046.06;4986397;28;21094;-60
2022/10/19 08:03:47;;;;;;;8.60;7.47;;;;;;;11.20;100.00;98046.09;5007876;28;20203;-60
2022/10/19 08:06:37;;;;;;;7.83;6.67;;;;;;;11.31;100.00;98039.59;5001129;28;20721;-59
2022/10/19 08:09:07;;;;;;;7.60;6.20;;;;;;;11.40;100.00;98043.91;4962179;28;21021;-60
2022/10/19 08:11:36;;;;;;;7.23;6.50;;;;;;;11.37;100.00;98038.09;5007397;28;20490;-63
2022/10/19 08:14:04;;;;;;;7.60;7.00;;;;;;;11.45;100.00;98040.72;5008910;28;20297;-61
2022/10/19 08:16:36;;;;;;;7.23;6.63;;;;;;;11.55;100.00;98049.38;4988070;28;20598;-62
2022/10/19 08:19:06;;;;;;;7.60;7.00;;;;;;;11.77;100.00;98039.00;5008187;28;20282;-62
2022/10/19 08:21:36;;;;;;;7.23;6.63;;;;;;;11.87;100.00;98044.94;5010992;28;20526;-61
2022/10/19 08:24:06;;;;;;;7.83;6.57;;;;;;;11.93;100.00;98034.63;5001964;28;20199;-61
2022/10/19 08:26:36;;;;;;;6.90;6.30;;;;;;;11.98;100.00;98049.06;4972876;28;20226;-60
2022/10/19 08:29:06;;;;;;;7.83;7.10;;;;;;;12.04;100.00;98039.63;5018992;28;20282;-60
2022/10/19 08:31:35;;;;;;;7.10;6.60;;;;;;;12.36;100.00;98050.25;4997303;28;20226;-62
2022/10/19 08:34:03;;;;;;;6.73;6.23;;;;;;;12.54;100.00;98050.00;5002933;28;20445;-60
2022/10/19 08:36:34;;;;;;;7.33;6.70;;;;;;;12.45;100.00;98049.19;5017827;28;20228;-60
2022/10/19 08:39:04;;;;;;;7.80;7.10;;;;;;;12.21;100.00;98053.66;5017827;28;20199;-62
2022/10/19 08:41:50;;;;;;;7.40;6.77;;;;;;;12.30;100.00;98051.78;4972256;28;20226;-62
2022/10/19 08:44:34;;;;;;;7.37;6.77;;;;;;;12.28;100.00;98049.31;5017463;28;20330;-61
2022/10/19 08:47:11;;;;;;;9.03;8.30;;;;;;;12.00;100.00;98047.09;4989304;28;20368;-56
2022/10/19 08:49:41;;;;;;;8.50;7.80;;;;;;;11.97;100.00;98052.72;4992984;28;20340;-62
2022/10/19 08:52:13;;;;;;;9.40;8.60;;;;;;;11.84;100.00;98052.44;5016185;28;20515;-62
2022/10/19 08:54:44;;;;;;;11.23;10.33;;;;;;;11.72;100.00;98049.31;5017537;28;20454;-62
2022/10/19 08:57:25;;;;;;;11.53;10.37;;;;;;;11.68;100.00;98053.31;4972686;28;20451;-60
2022/10/19 08:59:58;;;;;;;14.10;11.80;;;;;;;11.65;100.00;98056.31;5016441;28;20202;-60
2022/10/19 09:02:37;;;;;;;12.77;11.57;;;;;;;11.66;100.00;98052.66;5016967;28;20199;-61
2022/10/19 09:05:12;;;;;;;12.70;11.60;;;;;;;11.53;100.00;98061.13;5002798;28;20448;-63
2022/10/19 09:07:44;;;;;;;11.60;10.60;;;;;;;11.44;100.00;98055.00;5016177;28;20649;-63
2022/10/19 09:10:19;;;;;;;12.13;11.03;;;;;;;11.54;100.00;98046.88;5019108;28;20206;-60
2022/10/19 09:12:54;;;;;;;10.07;9.27;;;;;;;11.66;100.00;98050.81;4954921;28;21069;-61
2022/10/19 09:15:27;;;;;;;11.93;10.83;;;;;;;11.81;100.00;98058.09;5020147;28;20221;-62
2022/10/19 09:17:55;;;;;;;11.30;10.30;;;;;;;12.02;100.00;98061.03;4996688;28;20642;-62
2022/10/19 09:20:28;;;;;;;11.07;9.97;;;;;;;12.05;100.00;98051.91;5017899;28;20205;-60
2022/10/19 09:23:04;;;;;;;11.30;10.30;;;;;;;12.06;100.00;98048.25;5013838;28;20199;-62
2022/10/19 09:25:39;;;;;;;10.77;9.77;;;;;;;12.13;100.00;98051.84;5002643;28;20225;-61
2022/10/19 09:28:20;;;;;;;9.83;9.03;;;;;;;12.20;100.00;98045.84;4994502;28;20335;-60
2022/10/19 09:30:54;;;;;;;12.40;9.87;;;;;;;12.00;100.00;98046.25;5013205;28;20210;-59
2022/10/19 09:33:27;;;;;;;10.67;9.73;;;;;;;12.16;100.00;98046.19;5016231;28;20213;-62
2022/10/19 09:35:56;;;;;;;10.43;9.50;;;;;;;12.42;100.00;98041.59;4990267;28;21798;-62
2022/10/19 09:38:27;;;;;;;10.53;9.63;;;;;;;12.20;100.00;98041.38;5015277;28;20207;-63
2022/10/19 09:40:57;;;;;;;10.60;9.67;;;;;;;12.34;100.00;98047.78;5010767;28;20428;-61
2022/10/19 09:43:27;;;;;;;10.07;9.23;;;;;;;12.30;100.00;98054.44;4968608;28;20364;-61
2022/10/19 09:45:59;;;;;;;9.70;8.80;;;;;;;12.15;100.00;98052.50;5009383;28;20844;-63
2022/10/19 09:48:31;;;;;;;8.77;8.07;;;;;;;12.26;100.00;98058.44;4988350;28;20207;-61
2022/10/19 09:51:01;;;;;;;10.80;9.73;;;;;;;12.40;100.00;98065.69;4988301;28;20402;-62
2022/10/19 09:53:30;;;;;;;9.50;8.77;;;;;;;12.61;100.00;98060.75;5011273;28;20553;-63
2022/10/19 09:56:00;;;;;;;8.53;7.83;;;;;;;12.72;100.00;98061.19;4986438;28;21063;-61
2022/10/19 09:58:30;;;;;;;9.97;8.90;;;;;;;13.03;100.00;98062.94;4967097;28;20320;-62
2022/10/19 10:01:01;;;;;;;8.17;7.37;;;;;;;13.09;100.00;98050.78;5012186;28;20214;-62
2022/10/19 10:03:30;;;;;;;8.77;8.07;;;;;;;13.54;100.00;98053.56;5011974;28;20343;-62
2022/10/19 10:06:03;;;;;;;9.63;7.60;;;;;;;13.22;100.00;98052.84;4989758;28;20459;-62
2022/10/19 10:08:34;;;;;;;8.80;8.10;;;;;;;13.72;100.00;98049.72;5011560;28;20207;-62
2022/10/19 10:11:08;;;;;;;8.73;7.93;;;;;;;14.17;100.00;98049.72;5012325;28;21267;-62
2022/10/19 10:13:40;;;;;;;9.63;8.63;;;;;;;14.36;100.00;98050.97;4966344;28;20207;-62
2022/10/19 10:16:10;;;;;;;9.03;8.23;;;;;;;14.74;100.00;98050.81;5012340;28;22805;-62
2022/10/19 10:18:51;;;;;;;8.90;8.20;;;;;;;14.57;100.00;98052.00;5010554;28;20327;-62
2022/10/19 10:21:24;;;;;;;8.40;7.70;;;;;;;14.74;100.00;98052.63;4962263;28;20765;-61
2022/10/19 10:24:01;;;;;;;8.73;8.03;;;;;;;14.91;100.00;98050.56;5011334;28;20301;-62
2022/10/19 10:26:29;;;;;;;9.20;7.43;;;;;;;14.85;100.00;98046.81;5015482;28;20229;-62
2022/10/19 10:28:59;;;;;;;9.37;7.80;;;;;;;14.85;100.00;98043.31;4946040;28;20500;-61
2022/10/19 10:31:29;;;;;;;9.03;8.27;;;;;;;14.62;100.00;98041.63;5014198;28;20206;-62
2022/10/19 10:34:01;;;;;;;9.33;8.57;;;;;;;14.64;100.00;98034.25;5010619;28;20417;-61
2022/10/19 10:36:51;;;;;;;8.33;7.63;;;;;;;14.70;100.00;98028.19;4991715;28;20233;-61
2022/10/19 10:39:20;;;;;;;9.77;8.87;;;;;;;14.53;100.00;98024.91;5015452;28;20195;-61
2022/10/19 10:41:49;;;;;;;9.80;8.90;;;;;;;14.67;100.00;98020.56;4972234;28;20207;-62
2022/10/19 10:44:21;;;;;;;9.00;8.10;;;;;;;14.75;100.00;98016.94;5011237;28;20543;-62
2022/10/19 10:46:55;;;;;;;8.93;8.23;;;;;;;14.92;100.00;98020.19;5008797;28;20219;-61
2022/10/19 10:49:27;;;;;;;11.13;10.07;;;;;;;15.22;100.00;98017.34;5008669;28;20299;-60
2022/10/19 10:51:57;;;;;;;9.10;8.30;;;;;;;15.25;100.00;98011.63;4987543;28;20846;-61
2022/10/19 10:54:26;;;;;;;9.60;8.80;;;;;;;15.26;100.00;98010.63;4990241;28;20207;-60
2022/10/19 10:57:04;;;;;;;9.57;8.27;;;;;;;15.33;100.00;98000.00;5012044;28;20233;-57
2022/10/19 10:59:39;;;;;;;10.07;8.97;;;;;;;15.45;100.00;97994.94;4969256;28;20895;-57
2022/10/19 11:02:26;;;;;;;10.10;9.13;;;;;;;15.40;100.00;97986.69;4979239;28;20409;-58
2022/10/19 11:04:57;;;;;;;9.50;8.50;;;;;;;15.02;100.00;97988.69;5012667;28;20229;-62
2022/10/19 11:07:27;;;;;;;9.17;8.33;;;;;;;14.96;100.00;97988.63;4972393;28;20516;-60
2022/10/19 11:09:57;;;;;;;9.13;8.33;;;;;;;15.37;100.00;97977.22;5009632;28;20225;-60
2022/10/19 11:12:34;;;;;;;10.00;9.07;;;;;;;15.56;99.81;97964.19;5010159;28;20526;-61
2022/10/19 11:15:11;;;;;;;8.93;8.13;;;;;;;15.80;97.06;97962.88;4952793;28;20900;-61
2022/10/19 11:17:51;;;;;;;9.10;8.30;;;;;;;16.15;94.22;97965.53;5013801;28;20214;-62
2022/10/19 11:20:19;;;;;;;10.97;8.80;;;;;;;15.90;90.62;97960.69;5001427;28;20906;-62
2022/10/19 11:22:49;;;;;;;8.57;7.87;;;;;;;16.12;88.38;97941.03;4953367;28;20459;-59
2022/10/19 11:25:29;;;;;;;11.83;10.70;;;;;;;15.93;89.54;97951.47;5009119;28;21396;-61
2022/10/19 11:28:05;;;;;;;9.13;8.33;;;;;;;15.93;92.08;97943.44;4996521;28;20404;-61
2022/10/19 11:30:46;;;;;;;8.93;8.13;;;;;;;16.01;95.20;97940.59;4976484;28;20203;-60
2022/10/19 11:33:30;;;;;;;8.47;7.77;;;;;;;16.24;88.07;97927.91;4989597;28;21876;-62